Time;durP1;ratioP1;P1;durP2;ratioP2;P2;SDS_P1;SDS_P2;PMS_P1;PMS_P2;Temp;Humidity;BMP_temperature;BMP_pressure;BME280_temperature;BME280_humidity;BME280_pressure;Samples;Min_cycle;Max_cycle;Signal;HPM_P1;HPM_P2
2022/12/21 00:01:17;;;;;;;0.80;0.80;;;;;;;-7.60;88.21;99356.13;4953543;29;20122;-84
2022/12/21 00:03:45;;;;;;;0.90;0.90;;;;;;;-7.63;88.20;99354.56;4954689;28;20098;-85
2022/12/21 00:06:13;;;;;;;0.90;0.90;;;;;;;-7.58;88.23;99354.22;4954812;28;20051;-84
2022/12/21 00:08:45;;;;;;;0.80;0.80;;;;;;;-7.52;88.37;99354.59;4954664;28;20524;-84
2022/12/21 00:11:13;;;;;;;0.90;0.90;;;;;;;-7.49;88.16;99362.19;4954398;29;20128;-84
2022/12/21 00:13:41;;;;;;;0.82;0.82;;;;;;;-7.44;88.16;99356.59;4955076;28;20059;-84
2022/12/21 00:16:14;;;;;;;1.02;1.02;;;;;;;-7.44;88.40;99360.03;4954600;28;20047;-84
2022/12/21 00:18:45;;;;;;;0.90;0.90;;;;;;;-7.41;88.32;99367.66;4938234;29;20047;-84
2022/12/21 00:21:18;;;;;;;0.77;0.77;;;;;;;-7.41;88.03;99357.19;4954462;28;20057;-84
2022/12/21 00:23:47;;;;;;;0.90;0.90;;;;;;;-7.38;88.08;99366.59;4954877;28;20126;-84
2022/12/21 00:26:16;;;;;;;0.95;0.95;;;;;;;-7.38;88.26;99358.72;4954427;28;20417;-84
2022/12/21 00:28:43;;;;;;;0.90;0.90;;;;;;;-7.35;88.10;99360.25;4954529;28;20174;-84
2022/12/21 00:31:13;;;;;;;0.90;0.90;;;;;;;-7.34;87.93;99356.69;4954520;28;20102;-84
2022/12/21 00:33:41;;;;;;;0.88;0.88;;;;;;;-7.35;87.92;99353.22;4952789;29;20654;-84
2022/12/21 00:36:12;;;;;;;1.38;1.27;;;;;;;-7.34;87.81;99361.91;4954111;28;20057;-84
2022/12/21 00:38:41;;;;;;;0.70;0.70;;;;;;;-7.33;87.76;99364.44;4952937;29;20109;-83
2022/12/21 00:41:12;;;;;;;0.80;0.80;;;;;;;-7.36;87.88;99363.84;4953068;29;20514;-85
2022/12/21 00:43:40;;;;;;;0.80;0.80;;;;;;;-7.35;87.80;99368.13;4937494;29;20055;-84
2022/12/21 00:46:10;;;;;;;0.70;0.70;;;;;;;-7.30;87.79;99368.59;4952776;29;20051;-84
2022/12/21 00:48:42;;;;;;;0.90;0.90;;;;;;;-7.30;87.73;99372.06;4937836;29;20071;-84
2022/12/21 00:51:15;;;;;;;0.90;0.90;;;;;;;-7.35;87.71;99370.75;4952662;29;20147;-84
2022/12/21 00:53:43;;;;;;;0.75;0.75;;;;;;;-7.29;87.85;99367.63;4954060;28;20059;-84
2022/12/21 00:56:11;;;;;;;0.77;0.77;;;;;;;-7.28;87.86;99367.53;4936497;29;20055;-83
2022/12/21 00:58:38;;;;;;;0.90;0.90;;;;;;;-7.21;88.33;99362.63;4952600;29;20521;-83
2022/12/21 01:01:18;;;;;;;0.80;0.80;;;;;;;-7.12;88.36;99371.53;4952433;29;20529;-84
2022/12/21 01:03:45;;;;;;;0.80;0.80;;;;;;;-7.09;88.45;99366.03;4954214;28;20138;-84
2022/12/21 01:06:35;;;;;;;0.80;0.80;;;;;;;-7.07;88.82;99361.50;4936527;29;20051;-84
2022/12/21 01:09:07;;;;;;;0.98;0.98;;;;;;;-7.12;88.73;99361.06;4936498;29;20054;-84
2022/12/21 01:11:36;;;;;;;0.70;0.70;;;;;;;-7.13;88.76;99360.22;4935801;29;20055;-84
2022/12/21 01:14:03;;;;;;;0.70;0.70;;;;;;;-7.13;88.61;99360.22;4938919;29;20047;-84
2022/12/21 01:16:32;;;;;;;0.90;0.90;;;;;;;-7.16;88.41;99363.09;4919632;29;20051;-84
2022/12/21 01:19:00;;;;;;;0.80;0.80;;;;;;;-7.11;88.58;99366.19;4950205;28;20059;-84
2022/12/21 01:21:29;;;;;;;0.77;0.77;;;;;;;-7.18;88.66;99367.63;4936259;29;20043;-83
2022/12/21 01:24:00;;;;;;;0.80;0.80;;;;;;;-7.14;88.62;99371.69;4952855;28;20073;-83
2022/12/21 01:26:28;;;;;;;0.90;0.90;;;;;;;-7.17;88.36;99364.03;4953431;28;20421;-84
2022/12/21 01:28:55;;;;;;;0.90;0.90;;;;;;;-7.12;88.32;99372.38;4953759;28;20047;-83
2022/12/21 01:31:23;;;;;;;0.90;0.90;;;;;;;-7.03;88.28;99378.69;4953317;29;20106;-82
2022/12/21 01:33:52;;;;;;;0.90;0.90;;;;;;;-7.00;87.96;99375.81;4953806;28;20110;-83
2022/12/21 01:36:19;;;;;;;1.00;1.00;;;;;;;-7.03;87.73;99370.81;4953850;28;20054;-83
2022/12/21 01:38:47;;;;;;;0.85;0.85;;;;;;;-7.10;87.64;99377.50;4952977;29;20051;-82
2022/12/21 01:41:17;;;;;;;0.70;0.70;;;;;;;-7.10;87.93;99380.97;4952905;28;20051;-82
2022/12/21 01:43:51;;;;;;;0.95;0.95;;;;;;;-7.07;88.04;99385.13;4951588;29;20180;-82
2022/12/21 01:46:22;;;;;;;1.00;1.00;;;;;;;-7.06;87.83;99387.63;4952703;28;20395;-83
2022/12/21 01:48:57;;;;;;;1.10;1.10;;;;;;;-7.03;88.15;99384.75;4951594;29;20794;-81
2022/12/21 01:51:25;;;;;;;0.80;0.80;;;;;;;-6.98;88.16;99376.53;4935983;29;20047;-82
2022/12/21 01:53:58;;;;;;;0.85;0.85;;;;;;;-6.93;88.55;99381.41;4951475;29;20065;-82
2022/12/21 01:56:31;;;;;;;1.00;1.00;;;;;;;-6.99;88.54;99374.84;4952812;28;20047;-81
2022/12/21 01:59:08;;;;;;;0.95;0.95;;;;;;;-6.94;88.84;99379.72;4950747;28;20058;-82
2022/12/21 02:01:36;;;;;;;0.77;0.77;;;;;;;-6.97;88.76;99384.25;4935475;29;20074;-82
2022/12/21 02:04:03;;;;;;;0.80;0.80;;;;;;;-6.94;88.81;99383.19;4951099;29;20055;-83
2022/12/21 02:06:50;;;;;;;0.80;0.80;;;;;;;-6.88;88.74;99393.19;4951572;29;20051;-82
2022/12/21 02:09:18;;;;;;;0.60;0.60;;;;;;;-6.93;88.47;99394.53;4935543;29;20051;-84
2022/12/21 02:11:50;;;;;;;0.95;0.95;;;;;;;-6.93;88.68;99381.41;4952144;29;20046;-82
2022/12/21 02:14:17;;;;;;;0.80;0.80;;;;;;;-6.92;88.68;99389.13;4951285;29;20138;-82
2022/12/21 02:16:47;;;;;;;0.82;0.82;;;;;;;-6.84;88.80;99384.09;4952557;28;20055;-82
2022/12/21 02:19:51;;;;;;;0.70;0.70;;;;;;;-6.80;88.95;99382.06;4952449;28;20047;-82
2022/12/21 02:22:36;;;;;;;0.80;0.80;;;;;;;-6.81;88.66;99385.63;4952441;28;20062;-83
2022/12/21 02:25:24;;;;;;;0.80;0.80;;;;;;;-6.79;88.91;99383.72;4936146;29;20058;-83
2022/12/21 02:28:12;;;;;;;1.00;1.00;;;;;;;-6.79;88.97;99376.69;4952766;29;20143;-83
2022/12/21 02:30:57;;;;;;;0.70;0.70;;;;;;;-6.79;88.97;99381.09;4953923;28;20047;-81
2022/12/21 02:33:24;;;;;;;;;;;;;;;-6.78;88.80;99374.91;4969715;29;20047;-82
2022/12/21 02:35:51;;;;;;;0.98;0.98;;;;;;;-6.79;88.66;99381.09;4959211;29;19950;-83
2022/12/21 02:38:27;;;;;;;0.70;0.70;;;;;;;-6.79;88.91;99386.34;4967310;28;20047;-83
2022/12/21 02:41:03;;;;;;;0.60;0.60;;;;;;;-6.84;88.94;99375.41;4956790;29;20066;-83
2022/12/21 02:46:27;;;;;;;0.93;0.93;;;;;;;-6.91;88.72;99374.22;4953745;29;20051;-84
2022/12/21 02:49:07;;;;;;;0.75;0.75;;;;;;;-6.90;88.89;99371.47;4951763;29;20051;-82
2022/12/21 02:51:46;;;;;;;0.70;0.70;;;;;;;-6.87;88.93;99375.66;4935754;29;20055;-83
2022/12/21 02:54:13;;;;;;;0.80;0.80;;;;;;;-6.88;89.22;99371.38;4951290;29;20466;-83
2022/12/21 02:56:41;;;;;;;0.60;0.60;;;;;;;-6.87;89.46;99365.16;4951414;29;20047;-83
2022/12/21 02:59:13;;;;;;;0.70;0.70;;;;;;;-6.89;89.45;99359.19;4952586;28;20055;-83
2022/12/21 03:01:44;;;;;;;0.77;0.77;;;;;;;-6.92;89.74;99367.31;4935765;29;20055;-82
2022/12/21 03:04:18;;;;;;;0.82;0.82;;;;;;;-6.92;89.82;99367.31;4952227;28;20485;-83
2022/12/21 03:07:16;;;;;;;0.80;0.80;;;;;;;-6.98;89.78;99358.16;4950727;29;20060;-83
2022/12/21 03:10:16;;;;;;;0.85;0.85;;;;;;;-7.06;89.73;99355.31;4950998;29;20061;-84
2022/12/21 03:13:13;;;;;;;0.80;0.80;;;;;;;-7.01;89.87;99354.00;4938587;29;20081;-81
2022/12/21 03:15:56;;;;;;;0.80;0.80;;;;;;;-7.01;89.54;99355.78;4938774;29;20094;-81
2022/12/21 03:18:31;;;;;;;0.95;0.95;;;;;;;-7.00;89.59;99357.44;4955756;28;20147;-82
2022/12/21 03:21:12;;;;;;;0.70;0.70;;;;;;;-6.95;89.83;99359.69;4954514;29;20411;-81
2022/12/21 03:23:45;;;;;;;0.80;0.80;;;;;;;-6.88;90.01;99355.63;4954109;29;20514;-83
2022/12/21 03:26:23;;;;;;;0.75;0.75;;;;;;;-6.86;90.30;99356.31;4955299;29;20130;-82
2022/12/21 03:28:51;;;;;;;0.73;0.73;;;;;;;-6.87;90.15;99350.22;4955110;28;20078;-82
2022/12/21 03:31:22;;;;;;;0.85;0.85;;;;;;;-6.87;90.16;99352.03;4937711;29;20047;-83
2022/12/21 03:34:14;;;;;;;0.75;0.75;;;;;;;-6.88;90.45;99345.13;4597844;29;10000766;-82
2022/12/21 03:36:55;;;;;;;0.80;0.80;;;;;;;-6.90;90.67;99347.03;4931011;29;20056;-84
2022/12/21 03:39:23;;;;;;;0.70;0.70;;;;;;;-6.92;90.72;99336.66;4932366;29;20093;-82
2022/12/21 03:42:01;;;;;;;0.70;0.70;;;;;;;-6.89;91.07;99340.81;4930968;29;20083;-82
2022/12/21 03:44:38;;;;;;;0.85;0.85;;;;;;;-6.86;91.03;99330.06;4916879;29;20052;-84
2022/12/21 03:47:12;;;;;;;0.73;0.73;;;;;;;-6.90;90.86;99339.16;4931699;29;20043;-81
2022/12/21 03:49:48;;;;;;;0.70;0.70;;;;;;;-6.92;91.22;99333.19;4930920;29;20451;-82
2022/12/21 03:52:17;;;;;;;0.60;0.60;;;;;;;-6.88;91.22;99339.88;4915058;29;20079;-85
2022/12/21 03:55:05;;;;;;;0.70;0.70;;;;;;;-6.85;91.62;99337.81;4932108;29;20051;-83
2022/12/21 03:57:34;;;;;;;0.77;0.77;;;;;;;-6.90;91.49;99341.78;4915513;29;20143;-80
2022/12/21 04:00:03;;;;;;;0.95;0.95;;;;;;;-6.87;91.99;99339.72;4933913;29;20055;-80
2022/12/21 04:03:01;;;;;;;0.85;0.85;;;;;;;-6.87;92.02;99352.03;4934407;29;20059;-79
2022/12/21 04:05:38;;;;;;;1.00;1.00;;;;;;;-6.93;91.56;99355.16;4928319;29;20062;-82
2022/12/21 04:08:06;;;;;;;0.88;0.88;;;;;;;-7.01;91.77;99354.00;4933926;29;20048;-81
2022/12/21 04:10:33;;;;;;;0.82;0.82;;;;;;;-7.10;92.09;99357.34;4935703;29;20135;-81
2022/12/21 04:13:00;;;;;;;0.80;0.80;;;;;;;-7.15;92.18;99349.00;4940768;29;20052;-82
2022/12/21 04:18:13;;;;;;;0.93;0.93;;;;;;;-7.13;92.45;99346.28;4934802;29;20044;-82
2022/12/21 04:20:40;;;;;;;0.70;0.70;;;;;;;-7.07;93.05;99349.22;4933704;29;20499;-82
2022/12/21 04:28:39;;;;;;;1.00;1.00;;;;;;;-6.94;93.15;99337.75;4943035;29;20063;-82
2022/12/21 04:31:16;;;;;;;0.80;0.80;;;;;;;-6.93;93.17;99339.41;4934226;29;20047;-83
2022/12/21 04:33:44;;;;;;;0.77;0.77;;;;;;;-6.92;93.13;99327.94;4933986;29;20067;-83
2022/12/21 04:38:56;;;;;;;0.90;0.90;;;;;;;-6.94;93.16;99338.56;4933107;29;20146;-84
2022/12/21 04:41:23;;;;;;;1.00;1.00;;;;;;;-6.91;93.28;99334.84;4918131;29;20107;-83
2022/12/21 04:43:50;;;;;;;0.80;0.80;;;;;;;-6.93;93.11;99336.81;4934995;29;20054;-84
2022/12/21 04:46:18;;;;;;;0.80;0.80;;;;;;;-6.93;93.34;99342.88;4938396;29;20048;-83
2022/12/21 04:48:46;;;;;;;1.00;1.00;;;;;;;-6.91;93.40;99347.97;4942044;29;20059;-83
2022/12/21 04:51:18;;;;;;;0.90;0.90;;;;;;;-6.91;93.50;99347.97;4933939;29;20055;-81
2022/12/21 04:53:46;;;;;;;0.80;0.80;;;;;;;-6.97;93.02;99344.91;4933156;29;20059;-86
2022/12/21 04:56:13;;;;;;;0.70;0.70;;;;;;;-6.99;92.95;99336.34;4933481;29;20051;-83
2022/12/21 04:58:40;;;;;;;0.82;0.82;;;;;;;-7.02;92.91;99343.59;4947403;29;20649;-84
2022/12/21 05:01:11;;;;;;;1.00;1.00;;;;;;;-7.06;92.90;99350.06;4594437;28;10000532;-83
2022/12/21 05:03:39;;;;;;;0.70;0.70;;;;;;;-7.06;93.10;99345.66;4932425;29;20058;-86
2022/12/21 05:06:08;;;;;;;0.73;0.73;;;;;;;-7.05;93.09;99339.44;4931983;29;20075;-84
2022/12/21 05:08:36;;;;;;;1.00;1.00;;;;;;;-7.06;92.98;99344.84;4939088;28;20044;-84
2022/12/21 05:11:23;;;;;;;0.80;0.80;;;;;;;-7.07;92.99;99340.53;4936665;29;20499;-84
2022/12/21 05:14:04;;;;;;;0.80;0.80;;;;;;;-7.00;93.26;99339.91;4945265;29;20912;-84
2022/12/21 05:16:31;;;;;;;0.70;0.70;;;;;;;-6.94;93.20;99342.97;4940793;29;20090;-84
2022/12/21 05:18:58;;;;;;;0.80;0.80;;;;;;;-6.88;93.24;99358.25;4931937;29;20051;-83
2022/12/21 05:21:25;;;;;;;0.90;0.90;;;;;;;-6.92;93.64;99348.94;4939680;29;20107;-83
2022/12/21 05:23:52;;;;;;;0.90;0.90;;;;;;;-6.88;93.55;99350.38;4942003;29;20051;-84
2022/12/21 05:26:19;;;;;;;1.00;1.00;;;;;;;-6.86;93.69;99358.94;4937107;29;20479;-82
2022/12/21 05:28:49;;;;;;;0.85;0.85;;;;;;;-6.81;93.72;99348.91;4933615;29;20387;-82
2022/12/21 05:31:19;;;;;;;0.90;0.90;;;;;;;-6.71;93.43;99362.09;4932306;29;20481;-84
2022/12/21 05:33:46;;;;;;;1.00;1.00;;;;;;;-6.71;93.38;99352.44;4934021;29;20060;-83
2022/12/21 05:36:15;;;;;;;0.80;0.80;;;;;;;-6.67;93.26;99353.84;4934227;29;20055;-82
2022/12/21 05:38:42;;;;;;;0.70;0.70;;;;;;;-6.71;92.95;99360.31;4932528;29;20051;-83
2022/12/21 05:41:14;;;;;;;0.90;0.90;;;;;;;-6.70;93.12;99364.63;4932860;29;20143;-82
2022/12/21 05:43:41;;;;;;;0.77;0.77;;;;;;;-6.68;92.88;99365.31;4932296;29;20060;-83
2022/12/21 05:46:10;;;;;;;0.63;0.63;;;;;;;-6.66;92.77;99371.28;4932056;29;20067;-83
2022/12/21 05:48:38;;;;;;;0.70;0.70;;;;;;;-6.68;92.49;99372.34;4933701;29;20422;-83
2022/12/21 05:51:10;;;;;;;0.82;0.82;;;;;;;-6.70;92.43;99377.75;4933309;29;20458;-82
2022/12/21 05:53:40;;;;;;;0.90;0.90;;;;;;;-6.67;92.98;99372.22;4933340;29;20082;-82
2022/12/21 05:56:08;;;;;;;0.70;0.70;;;;;;;-6.66;92.59;99373.91;4931907;29;20494;-83
2022/12/21 05:58:35;;;;;;;0.75;0.75;;;;;;;-6.64;92.66;99374.59;4933265;29;20078;-83
2022/12/21 06:01:06;;;;;;;0.70;0.70;;;;;;;-6.60;92.63;99373.41;4933004;29;20138;-83
2022/12/21 06:03:34;;;;;;;0.70;0.70;;;;;;;-6.55;92.60;99362.53;4932922;29;20075;-83
2022/12/21 06:06:06;;;;;;;0.90;0.90;;;;;;;-6.55;92.42;99363.34;4933394;29;20047;-82
2022/12/21 06:08:47;;;;;;;0.70;0.70;;;;;;;-6.55;92.72;99371.22;4932026;29;20074;-83
2022/12/21 06:11:17;;;;;;;0.70;0.70;;;;;;;-6.56;92.71;99380.06;4933435;29;20048;-83
2022/12/21 06:13:44;;;;;;;0.70;0.70;;;;;;;-6.55;92.78;99386.97;4933187;29;20652;-83
2022/12/21 06:16:15;;;;;;;0.88;0.88;;;;;;;-6.61;92.76;99382.25;4931651;29;20459;-83
2022/12/21 06:18:42;;;;;;;0.80;0.80;;;;;;;-6.60;92.73;99383.06;4931916;29;20067;-83
2022/12/21 06:21:14;;;;;;;0.98;0.98;;;;;;;-6.54;93.09;99387.81;4947232;29;20083;-83
2022/12/21 06:23:42;;;;;;;0.80;0.80;;;;;;;-6.59;93.03;99385.56;4933891;29;20048;-83
2022/12/21 06:26:14;;;;;;;0.90;0.90;;;;;;;-6.57;93.03;99388.06;4933271;29;20079;-83
2022/12/21 06:28:41;;;;;;;0.70;0.70;;;;;;;-6.58;93.00;99389.88;4933211;29;20538;-83
2022/12/21 06:31:11;;;;;;;0.90;0.90;;;;;;;-6.59;93.16;99376.84;4932835;29;20055;-83
2022/12/21 06:33:39;;;;;;;0.90;0.90;;;;;;;-6.52;93.64;99391.16;4932728;29;20467;-84
2022/12/21 06:36:07;;;;;;;0.70;0.70;;;;;;;-6.48;93.41;99389.09;4931401;29;20059;-83
2022/12/21 06:38:35;;;;;;;0.73;0.73;;;;;;;-6.47;93.32;99380.28;4932881;29;20398;-83
2022/12/21 06:41:08;;;;;;;0.80;0.80;;;;;;;-6.40;93.27;99384.88;4932713;29;20060;-83
2022/12/21 06:43:39;;;;;;;0.60;0.60;;;;;;;-6.42;93.06;99380.72;4947476;29;20055;-83
2022/12/21 06:46:12;;;;;;;0.70;0.70;;;;;;;-6.43;93.00;99381.66;4933538;29;20055;-83
2022/12/21 06:48:40;;;;;;;0.75;0.75;;;;;;;-6.37;93.33;99375.91;4919816;29;20052;-83
2022/12/21 06:51:13;;;;;;;0.60;0.60;;;;;;;-6.34;93.40;99376.50;4935147;29;20047;-83
2022/12/21 06:53:42;;;;;;;0.77;0.77;;;;;;;-6.29;93.18;99378.72;4936675;29;20062;-83
2022/12/21 06:56:14;;;;;;;0.75;0.75;;;;;;;-6.26;93.28;99375.03;4936154;29;20435;-83
2022/12/21 06:58:48;;;;;;;0.80;0.80;;;;;;;-6.21;93.33;99370.22;4934991;29;20083;-83
2022/12/21 07:01:26;;;;;;;0.60;0.60;;;;;;;-6.27;93.11;99373.38;4935014;29;20130;-83
2022/12/21 07:03:54;;;;;;;0.70;0.70;;;;;;;-6.31;92.92;99372.78;4936329;29;20048;-83
2022/12/21 07:06:24;;;;;;;0.95;0.95;;;;;;;-6.24;93.02;99373.94;4935056;29;20048;-83
2022/12/21 07:08:51;;;;;;;0.93;0.93;;;;;;;-6.19;93.16;99376.19;4937621;29;20079;-83
2022/12/21 07:11:21;;;;;;;0.85;0.85;;;;;;;-6.11;92.88;99385.06;4937670;29;20167;-83
2022/12/21 07:13:49;;;;;;;0.73;0.73;;;;;;;-6.07;92.80;99392.72;4938718;29;20043;-82
2022/12/21 07:16:17;;;;;;;0.80;0.80;;;;;;;-6.01;92.98;99389.56;4959720;29;20050;-84
2022/12/21 07:18:45;;;;;;;0.80;0.80;;;;;;;-5.97;92.94;99388.34;4960770;28;20032;-83
2022/12/21 07:21:14;;;;;;;0.90;0.90;;;;;;;-5.97;93.19;99406.75;4944201;29;20052;-84
2022/12/21 07:23:42;;;;;;;0.82;0.82;;;;;;;-6.03;92.51;99407.25;4939266;29;20056;-83
2022/12/21 07:26:15;;;;;;;0.70;0.70;;;;;;;-6.11;92.39;99392.94;4938076;29;20047;-83
2022/12/21 07:28:43;;;;;;;0.80;0.80;;;;;;;-6.16;92.33;99404.81;4937237;29;20083;-83
2022/12/21 07:31:14;;;;;;;0.75;0.75;;;;;;;-6.21;92.62;99397.31;4935925;29;20056;-83
2022/12/21 07:33:42;;;;;;;0.73;0.73;;;;;;;-6.21;92.50;99401.75;4935953;29;20059;-83
2022/12/21 07:36:10;;;;;;;0.82;0.82;;;;;;;-6.18;92.66;99404.97;4935469;29;20066;-83
2022/12/21 07:38:38;;;;;;;0.70;0.70;;;;;;;-6.12;92.93;99403.63;4934882;29;20407;-83
2022/12/21 07:41:08;;;;;;;0.80;0.80;;;;;;;-6.16;92.72;99402.19;4935574;29;20414;-82
2022/12/21 07:43:35;;;;;;;0.70;0.70;;;;;;;-6.15;92.78;99409.97;4934402;29;20043;-83
2022/12/21 07:46:26;;;;;;;0.88;0.88;;;;;;;-6.21;92.75;99404.38;4935326;28;20062;-83
2022/12/21 07:48:54;;;;;;;0.68;0.68;;;;;;;-6.30;92.79;99405.97;4918531;29;20146;-83
2022/12/21 07:51:21;;;;;;;0.80;0.80;;;;;;;-6.37;93.24;99410.06;4935419;29;20052;-83
2022/12/21 07:53:48;;;;;;;0.90;0.90;;;;;;;-6.34;93.33;99402.75;4935568;29;20534;-83
2022/12/21 07:56:17;;;;;;;0.70;0.70;;;;;;;-6.32;93.50;99413.16;4937014;29;20464;-84
2022/12/21 07:58:45;;;;;;;0.80;0.80;;;;;;;-6.37;93.42;99410.91;4936573;29;20058;-83
2022/12/21 08:01:15;;;;;;;0.80;0.80;;;;;;;-6.40;93.73;99426.09;4935305;29;20067;-83
2022/12/21 08:03:44;;;;;;;0.80;0.80;;;;;;;-6.36;93.71;99399.41;4934334;29;20075;-82
2022/12/21 08:06:13;;;;;;;0.90;0.90;;;;;;;-6.38;94.24;99404.00;4935370;29;20060;-82
2022/12/21 08:08:46;;;;;;;0.90;0.90;;;;;;;-6.42;94.04;99412.25;4934316;29;20130;-83
2022/12/21 08:11:16;;;;;;;0.70;0.70;;;;;;;-6.38;94.07;99411.00;4935298;29;20055;-83
2022/12/21 08:13:43;;;;;;;0.75;0.75;;;;;;;-6.51;93.90;99394.59;4935167;29;20079;-82
2022/12/21 08:16:13;;;;;;;0.73;0.73;;;;;;;-6.41;94.18;99413.91;4934047;29;20142;-83
2022/12/21 08:18:40;;;;;;;0.90;0.90;;;;;;;-6.51;94.14;99403.31;4935696;29;20054;-82
2022/12/21 08:21:07;;;;;;;0.85;0.85;;;;;;;-6.41;93.67;99411.28;4939964;29;20123;-83
2022/12/21 08:23:35;;;;;;;0.65;0.65;;;;;;;-6.39;93.85;99415.44;4942845;29;20533;-82
2022/12/21 08:26:07;;;;;;;0.70;0.70;;;;;;;-6.39;93.56;99414.59;4934596;29;20522;-81
2022/12/21 08:28:34;;;;;;;0.70;0.70;;;;;;;-6.42;93.15;99412.25;4934801;29;20052;-82
2022/12/21 08:31:14;;;;;;;0.90;0.90;;;;;;;-6.41;93.05;99422.59;4933358;29;20162;-82
2022/12/21 08:33:42;;;;;;;0.90;0.90;;;;;;;-6.36;93.40;99416.97;4934276;29;20082;-83
2022/12/21 08:36:15;;;;;;;0.60;0.60;;;;;;;-6.29;93.57;99418.13;4933305;29;20438;-83
2022/12/21 08:38:42;;;;;;;0.80;0.80;;;;;;;-6.33;93.51;99419.34;4934949;29;20047;-82
2022/12/21 08:41:29;;;;;;;0.85;0.85;;;;;;;-6.33;93.15;99401.81;4936671;29;20059;-83
2022/12/21 08:43:57;;;;;;;0.80;0.80;;;;;;;-6.35;93.11;99414.22;4934583;29;20079;-83
2022/12/21 08:46:25;;;;;;;0.70;0.70;;;;;;;-6.38;93.19;99403.13;4937308;29;20063;-82
2022/12/21 08:48:52;;;;;;;0.80;0.80;;;;;;;-6.41;92.93;99403.38;4933531;29;20051;-83
2022/12/21 08:51:19;;;;;;;1.00;1.00;;;;;;;-6.41;92.86;99406.84;4917237;29;20051;-83
2022/12/21 08:53:46;;;;;;;0.73;0.73;;;;;;;-6.40;92.75;99402.44;4941361;29;20107;-82
2022/12/21 08:56:18;;;;;;;0.77;0.77;;;;;;;-6.44;92.62;99399.22;4935937;29;20143;-82
2022/12/21 08:58:46;;;;;;;0.75;0.75;;;;;;;-6.36;92.99;99406.47;4932929;29;20549;-82
2022/12/21 09:01:17;;;;;;;0.80;0.80;;;;;;;-6.30;92.53;99405.13;4933885;29;20540;-82
2022/12/21 09:03:44;;;;;;;0.82;0.82;;;;;;;-6.32;92.46;99408.72;4935032;29;20055;-82
2022/12/21 09:06:11;;;;;;;0.93;0.93;;;;;;;-6.28;92.56;99397.94;4943411;29;20054;-83
2022/12/21 09:08:39;;;;;;;0.85;0.85;;;;;;;-6.26;92.36;99396.88;4926965;29;20423;-82
2022/12/21 09:11:11;;;;;;;0.95;0.95;;;;;;;-6.30;92.08;99390.22;4943872;29;20044;-82
2022/12/21 09:13:39;;;;;;;1.00;1.00;;;;;;;-6.36;92.06;99388.91;4944371;29;20054;-83
2022/12/21 09:16:13;;;;;;;0.90;0.90;;;;;;;-6.33;92.31;99390.44;4945021;29;20455;-82
2022/12/21 09:18:41;;;;;;;1.07;1.07;;;;;;;-6.28;92.22;99387.44;4938232;29;20051;-83
2022/12/21 09:21:09;;;;;;;1.00;1.00;;;;;;;-6.23;92.40;99387.91;4933652;29;20047;-83
2022/12/21 09:23:36;;;;;;;0.70;0.70;;;;;;;-6.16;92.15;99382.00;4916559;29;20051;-82
2022/12/21 09:26:04;;;;;;;0.80;0.80;;;;;;;-6.16;92.22;99392.50;4933549;29;20060;-82
2022/12/21 09:28:37;;;;;;;0.90;0.90;;;;;;;-6.13;92.11;99366.00;4933513;29;20051;-83
2022/12/21 09:31:16;;;;;;;0.75;0.75;;;;;;;-6.15;92.22;99364.47;4933514;29;20055;-82
2022/12/21 09:33:50;;;;;;;0.93;0.93;;;;;;;-6.09;92.17;99356.06;4931953;29;20147;-83
2022/12/21 09:36:19;;;;;;;0.90;0.90;;;;;;;-6.02;92.47;99364.25;4933413;29;20470;-82
2022/12/21 09:38:49;;;;;;;0.90;0.90;;;;;;;-5.97;92.54;99351.56;4933042;29;20106;-82
2022/12/21 09:41:27;;;;;;;0.85;0.85;;;;;;;-5.98;91.89;99360.38;4932770;29;20056;-83
2022/12/21 09:44:18;;;;;;;1.08;1.08;;;;;;;-6.00;92.03;99359.69;4933070;29;20079;-83
2022/12/21 09:46:50;;;;;;;0.90;0.90;;;;;;;-5.96;91.78;99363.72;4932988;29;20536;-83
2022/12/21 09:49:21;;;;;;;0.90;0.90;;;;;;;-6.03;91.53;99370.47;4934251;29;20066;-82
2022/12/21 09:51:54;;;;;;;0.70;0.70;;;;;;;-5.95;91.90;99358.34;4932641;29;20094;-84
2022/12/21 09:54:32;;;;;;;0.70;0.70;;;;;;;-5.96;91.68;99358.47;4928492;29;20047;-84
2022/12/21 09:56:59;;;;;;;0.68;0.68;;;;;;;-6.01;91.45;99350.16;4943254;28;20078;-83
2022/12/21 09:59:27;;;;;;;1.00;1.00;;;;;;;-6.04;91.68;99348.59;4605404;28;9999764;-82
2022/12/21 10:02:33;;;;;;;0.68;0.68;;;;;;;-6.00;92.16;99334.25;4938272;28;20067;-81
2022/12/21 10:05:00;;;;;;;0.90;0.90;;;;;;;-6.00;92.03;99317.63;4946526;29;20146;-83
2022/12/21 10:08:22;;;;;;;1.00;1.00;;;;;;;-5.98;92.10;99327.03;4931851;28;20051;-82
2022/12/21 10:10:52;;;;;;;0.80;0.80;;;;;;;-5.97;92.42;99335.78;4927705;29;20661;-83
2022/12/21 10:13:34;;;;;;;0.80;0.80;;;;;;;-5.95;92.30;99342.59;4939623;29;20150;-84
2022/12/21 10:16:16;;;;;;;0.90;0.90;;;;;;;-5.93;92.41;99339.78;4929843;29;20130;-84
2022/12/21 10:18:48;;;;;;;0.70;0.70;;;;;;;-5.94;92.25;99340.78;4947749;28;20100;-83
2022/12/21 10:21:47;;;;;;;0.80;0.80;;;;;;;-5.90;92.59;99326.34;4938130;29;20139;-85
2022/12/21 10:24:26;;;;;;;0.90;0.90;;;;;;;-5.89;92.08;99320.97;4928357;29;20067;-83
2022/12/21 10:27:16;;;;;;;0.80;0.80;;;;;;;-5.89;92.33;99314.91;4937697;29;20146;-83
2022/12/21 10:29:47;;;;;;;0.90;0.90;;;;;;;-5.86;92.26;99311.19;4934207;29;20051;-83
2022/12/21 10:32:14;;;;;;;0.60;0.60;;;;;;;-5.94;92.11;99299.56;4936503;29;20165;-83
2022/12/21 10:34:48;;;;;;;0.75;0.75;;;;;;;-6.00;92.38;99307.13;4939597;28;20058;-83
2022/12/21 10:37:17;;;;;;;0.75;0.75;;;;;;;-5.94;92.61;99320.56;4933836;29;20051;-83
2022/12/21 10:39:45;;;;;;;0.68;0.68;;;;;;;-5.94;92.56;99314.50;4939224;29;20054;-82
2022/12/21 10:42:24;;;;;;;0.70;0.70;;;;;;;-5.93;92.37;99301.16;4938618;29;20043;-84
2022/12/21 10:44:52;;;;;;;0.70;0.70;;;;;;;-5.86;92.80;99298.84;4931309;29;20047;-87
2022/12/21 10:47:23;;;;;;;0.70;0.70;;;;;;;-5.83;92.86;99298.59;4929016;29;20043;-84
2022/12/21 10:50:13;;;;;;;0.77;0.77;;;;;;;-5.83;92.67;99285.44;4927852;29;20113;-84
2022/12/21 10:52:43;;;;;;;0.75;0.75;;;;;;;-5.89;92.82;99291.25;4934237;29;20826;-83
2022/12/21 10:55:19;;;;;;;0.68;0.68;;;;;;;-5.89;92.75;99299.13;4932119;29;20418;-83
2022/12/21 10:57:48;;;;;;;0.80;0.80;;;;;;;-5.94;93.05;99289.03;4937510;29;20083;-83
2022/12/21 11:00:31;;;;;;;0.70;0.70;;;;;;;-5.92;93.18;99287.09;4944999;29;20091;-83
2022/12/21 11:03:09;;;;;;;1.00;1.00;;;;;;;-5.90;93.22;99279.91;4949606;28;20127;-83
2022/12/21 11:05:39;;;;;;;0.73;0.73;;;;;;;-5.98;93.32;99279.75;4948054;29;20106;-84
2022/12/21 11:08:13;;;;;;;0.80;0.80;;;;;;;-5.94;93.34;99277.69;4935874;29;20665;-84
2022/12/21 11:10:42;;;;;;;0.60;0.60;;;;;;;-5.98;93.79;99284.16;4944832;28;20118;-83
2022/12/21 11:13:30;;;;;;;0.60;0.60;;;;;;;-5.86;93.71;99277.00;4940341;29;20047;-83
2022/12/21 11:16:09;;;;;;;0.90;0.90;;;;;;;-5.83;93.69;99274.94;4937423;29;20059;-83
2022/12/21 11:18:45;;;;;;;0.70;0.70;;;;;;;-5.77;93.40;99273.56;4933584;29;20106;-84
2022/12/21 11:21:31;;;;;;;0.90;0.90;;;;;;;-5.73;93.49;99273.16;4943636;29;20112;-84
2022/12/21 11:24:18;;;;;;;0.77;0.77;;;;;;;-5.74;93.27;99258.34;4943986;29;20056;-83
2022/12/21 11:26:51;;;;;;;0.80;0.80;;;;;;;-5.82;93.28;99283.63;4936554;29;20613;-83
2022/12/21 11:29:24;;;;;;;0.70;0.70;;;;;;;-5.81;93.29;99282.69;4914286;29;20522;-83
2022/12/21 11:31:55;;;;;;;0.60;0.60;;;;;;;-5.78;93.29;99264.00;4941898;29;20115;-83
2022/12/21 11:34:39;;;;;;;0.80;0.80;;;;;;;-5.80;93.48;99272.03;4935643;29;20142;-84
2022/12/21 11:37:21;;;;;;;0.80;0.80;;;;;;;-5.71;93.56;99273.03;4938948;29;20059;-82
2022/12/21 11:39:48;;;;;;;0.70;0.70;;;;;;;-5.69;93.80;99268.47;4936397;29;20081;-82
2022/12/21 11:42:21;;;;;;;0.98;0.98;;;;;;;-5.69;93.55;99256.16;4942433;28;20107;-82
2022/12/21 11:45:09;;;;;;;0.80;0.80;;;;;;;-5.73;93.42;99260.00;4937806;29;20119;-82
2022/12/21 11:48:07;;;;;;;0.80;0.80;;;;;;;-5.78;93.43;99262.22;4924421;29;20103;-82
2022/12/21 11:50:34;;;;;;;0.65;0.65;;;;;;;-5.84;93.33;99260.13;4933623;29;20048;-83
2022/12/21 11:53:20;;;;;;;0.70;0.70;;;;;;;-5.84;93.36;99260.13;4957885;28;20027;-83
2022/12/21 11:55:55;;;;;;;0.80;0.80;;;;;;;-5.78;93.68;99259.59;4965774;29;20035;-82
2022/12/21 11:58:33;;;;;;;;;;;;;;;-5.77;93.59;99244.63;4969604;29;20055;-82
2022/12/21 12:01:09;;;;;;;0.80;0.80;;;;;;;-5.77;93.51;99258.63;4939534;29;19993;-83
2022/12/21 12:04:00;;;;;;;0.70;0.70;;;;;;;-5.75;93.68;99261.09;4941092;29;20047;-82
2022/12/21 12:06:48;;;;;;;0.80;0.80;;;;;;;-5.70;93.75;99267.66;4942224;29;20126;-82
2022/12/21 12:09:26;;;;;;;0.60;0.60;;;;;;;-5.66;94.00;99273.47;4934428;29;20508;-82
2022/12/21 12:12:29;;;;;;;0.75;0.75;;;;;;;-5.66;93.89;99258.50;4938635;29;20074;-82
2022/12/21 12:15:14;;;;;;;0.63;0.63;;;;;;;-5.67;94.03;99261.28;4941836;29;20047;-83